sensor_id;sensor_type;location;lat;lon;timestamp;temperature;humidity
46331;DHT22;32049;52.346;4.870;2022-09-29T00:00:42;9.30;99.90
46331;DHT22;32049;52.346;4.870;2022-09-29T00:03:29;9.10;99.90
46331;DHT22;32049;52.346;4.870;2022-09-29T00:06:17;9.10;99.90
46331;DHT22;32049;52.346;4.870;2022-09-29T00:09:16;9.20;99.90
46331;DHT22;32049;52.346;4.870;2022-09-29T00:13:39;9.30;99.90
46331;DHT22;32049;52.346;4.870;2022-09-29T00:16:43;9.20;99.90
46331;DHT22;32049;52.346;4.870;2022-09-29T00:19:42;9.30;99.90
46331;DHT22;32049;52.346;4.870;2022-09-29T00:22:35;9.20;99.90
46331;DHT22;32049;52.346;4.870;2022-09-29T00:25:45;9.30;99.90
46331;DHT22;32049;52.346;4.870;2022-09-29T00:31:57;9.20;99.90
46331;DHT22;32049;52.346;4.870;2022-09-29T00:34:52;9.20;99.90
46331;DHT22;32049;52.346;4.870;2022-09-29T00:37:46;9.20;99.90
46331;DHT22;32049;52.346;4.870;2022-09-29T00:40:37;9.20;99.90
46331;DHT22;32049;52.346;4.870;2022-09-29T00:46:57;9.20;99.90
46331;DHT22;32049;52.346;4.870;2022-09-29T00:53:28;9.10;99.90
46331;DHT22;32049;52.346;4.870;2022-09-29T00:56:18;9.10;99.90
46331;DHT22;32049;52.346;4.870;2022-09-29T00:59:13;9.10;99.90
46331;DHT22;32049;52.346;4.870;2022-09-29T01:02:04;9.00;99.90
46331;DHT22;32049;52.346;4.870;2022-09-29T01:04:57;9.10;99.90
46331;DHT22;32049;52.346;4.870;2022-09-29T01:07:47;9.00;99.90
46331;DHT22;32049;52.346;4.870;2022-09-29T01:10:37;9.10;99.90
46331;DHT22;32049;52.346;4.870;2022-09-29T01:13:31;9.10;99.90
46331;DHT22;32049;52.346;4.870;2022-09-29T01:16:47;9.00;99.90
46331;DHT22;32049;52.346;4.870;2022-09-29T01:20:25;9.00;99.90
46331;DHT22;32049;52.346;4.870;2022-09-29T01:27:22;9.20;99.90
46331;DHT22;32049;52.346;4.870;2022-09-29T01:34:01;9.20;99.90
46331;DHT22;32049;52.346;4.870;2022-09-29T01:37:13;9.20;99.90
46331;DHT22;32049;52.346;4.870;2022-09-29T01:40:26;9.30;99.90
46331;DHT22;32049;52.346;4.870;2022-09-29T01:44:00;9.30;99.90
46331;DHT22;32049;52.346;4.870;2022-09-29T01:46:52;9.30;99.90
46331;DHT22;32049;52.346;4.870;2022-09-29T01:49:47;9.30;99.90
46331;DHT22;32049;52.346;4.870;2022-09-29T01:52:50;9.30;99.90
46331;DHT22;32049;52.346;4.870;2022-09-29T01:55:50;9.20;99.90
46331;DHT22;32049;52.346;4.870;2022-09-29T01:58:54;9.20;99.90
46331;DHT22;32049;52.346;4.870;2022-09-29T02:01:47;9.20;99.90
46331;DHT22;32049;52.346;4.870;2022-09-29T02:04:51;9.20;99.90
46331;DHT22;32049;52.346;4.870;2022-09-29T02:07:45;9.20;99.90
46331;DHT22;32049;52.346;4.870;2022-09-29T02:10:43;9.30;99.90
46331;DHT22;32049;52.346;4.870;2022-09-29T02:14:02;9.20;99.90
46331;DHT22;32049;52.346;4.870;2022-09-29T02:17:03;9.10;99.90
46331;DHT22;32049;52.346;4.870;2022-09-29T02:19:54;9.20;99.90
46331;DHT22;32049;52.346;4.870;2022-09-29T02:23:09;9.20;99.90
46331;DHT22;32049;52.346;4.870;2022-09-29T02:26:04;9.20;99.90
46331;DHT22;32049;52.346;4.870;2022-09-29T02:28:53;9.10;99.90
46331;DHT22;32049;52.346;4.870;2022-09-29T02:31:46;9.10;99.90
46331;DHT22;32049;52.346;4.870;2022-09-29T02:34:48;9.20;99.90
46331;DHT22;32049;52.346;4.870;2022-09-29T02:38:17;9.10;99.90
46331;DHT22;32049;52.346;4.870;2022-09-29T02:41:33;9.00;99.90
46331;DHT22;32049;52.346;4.870;2022-09-29T02:51:18;8.90;99.90
46331;DHT22;32049;52.346;4.870;2022-09-29T03:01:50;8.70;99.90
46331;DHT22;32049;52.346;4.870;2022-09-29T03:05:09;8.70;99.90
46331;DHT22;32049;52.346;4.870;2022-09-29T03:08:05;8.60;99.90
46331;DHT22;32049;52.346;4.870;2022-09-29T03:10:58;8.50;99.90
46331;DHT22;32049;52.346;4.870;2022-09-29T03:13:49;8.50;99.90
46331;DHT22;32049;52.346;4.870;2022-09-29T03:16:42;8.50;99.90
46331;DHT22;32049;52.346;4.870;2022-09-29T03:19:40;8.60;99.90
46331;DHT22;32049;52.346;4.870;2022-09-29T03:22:29;8.60;99.90
46331;DHT22;32049;52.346;4.870;2022-09-29T03:25:25;8.60;99.90
46331;DHT22;32049;52.346;4.870;2022-09-29T03:28:13;8.40;99.90
46331;DHT22;32049;52.346;4.870;2022-09-29T03:31:21;8.40;99.90
46331;DHT22;32049;52.346;4.870;2022-09-29T03:34:25;8.40;99.90
46331;DHT22;32049;52.346;4.870;2022-09-29T03:37:16;8.50;99.90
46331;DHT22;32049;52.346;4.870;2022-09-29T03:40:13;8.50;99.90
46331;DHT22;32049;52.346;4.870;2022-09-29T03:43:11;8.50;99.90
46331;DHT22;32049;52.346;4.870;2022-09-29T03:46:06;8.50;99.90
46331;DHT22;32049;52.346;4.870;2022-09-29T03:49:09;8.40;99.90
46331;DHT22;32049;52.346;4.870;2022-09-29T03:52:05;8.60;99.90
46331;DHT22;32049;52.346;4.870;2022-09-29T03:54:55;8.50;99.90
46331;DHT22;32049;52.346;4.870;2022-09-29T03:58:26;8.60;99.90
46331;DHT22;32049;52.346;4.870;2022-09-29T04:01:23;8.50;99.90
46331;DHT22;32049;52.346;4.870;2022-09-29T04:04:17;8.50;99.90
46331;DHT22;32049;52.346;4.870;2022-09-29T04:07:21;8.50;99.90
46331;DHT22;32049;52.346;4.870;2022-09-29T04:10:41;8.50;99.90
46331;DHT22;32049;52.346;4.870;2022-09-29T04:13:47;8.50;99.90
46331;DHT22;32049;52.346;4.870;2022-09-29T04:16:47;8.50;99.90
46331;DHT22;32049;52.346;4.870;2022-09-29T04:19:44;8.40;99.90
46331;DHT22;32049;52.346;4.870;2022-09-29T04:22:53;8.50;99.90
46331;DHT22;32049;52.346;4.870;2022-09-29T04:26:10;8.40;99.90
46331;DHT22;32049;52.346;4.870;2022-09-29T04:29:39;8.40;99.90
46331;DHT22;32049;52.346;4.870;2022-09-29T04:33:38;8.40;99.90
46331;DHT22;32049;52.346;4.870;2022-09-29T04:36:35;8.30;99.90
46331;DHT22;32049;52.346;4.870;2022-09-29T04:39:45;8.30;99.90
46331;DHT22;32049;52.346;4.870;2022-09-29T04:42:37;8.30;99.90
46331;DHT22;32049;52.346;4.870;2022-09-29T04:45:46;8.40;99.90
46331;DHT22;32049;52.346;4.870;2022-09-29T04:48:41;8.30;99.90
46331;DHT22;32049;52.346;4.870;2022-09-29T04:52:01;8.60;99.90
46331;DHT22;32049;52.346;4.870;2022-09-29T04:55:13;8.50;99.90
46331;DHT22;32049;52.346;4.870;2022-09-29T04:58:06;8.50;99.90
46331;DHT22;32049;52.346;4.870;2022-09-29T05:01:16;8.60;99.90
46331;DHT22;32049;52.346;4.870;2022-09-29T05:04:46;8.50;99.90
46331;DHT22;32049;52.346;4.870;2022-09-29T05:07:39;8.30;99.90
46331;DHT22;32049;52.346;4.870;2022-09-29T05:10:39;8.30;99.90
46331;DHT22;32049;52.346;4.870;2022-09-29T05:13:36;8.30;99.90
46331;DHT22;32049;52.346;4.870;2022-09-29T05:16:44;8.40;99.90
46331;DHT22;32049;52.346;4.870;2022-09-29T05:19:43;8.40;99.90
46331;DHT22;32049;52.346;4.870;2022-09-29T05:22:30;8.40;99.90
46331;DHT22;32049;52.346;4.870;2022-09-29T05:25:19;8.30;99.90
46331;DHT22;32049;52.346;4.870;2022-09-29T05:28:10;8.40;99.90
46331;DHT22;32049;52.346;4.870;2022-09-29T05:31:05;8.40;99.90
46331;DHT22;32049;52.346;4.870;2022-09-29T05:34:02;8.20;99.90
46331;DHT22;32049;52.346;4.870;2022-09-29T05:36:54;8.10;99.90
46331;DHT22;32049;52.346;4.870;2022-09-29T05:39:52;8.10;99.90
46331;DHT22;32049;52.346;4.870;2022-09-29T05:43:27;8.10;99.90
46331;DHT22;32049;52.346;4.870;2022-09-29T05:53:21;8.10;99.90
46331;DHT22;32049;52.346;4.870;2022-09-29T05:56:11;8.10;99.90
46331;DHT22;32049;52.346;4.870;2022-09-29T05:59:05;8.20;99.90
46331;DHT22;32049;52.346;4.870;2022-09-29T06:01:54;8.20;99.90
46331;DHT22;32049;52.346;4.870;2022-09-29T06:04:42;8.20;99.90
46331;DHT22;32049;52.346;4.870;2022-09-29T06:08:07;8.20;99.90
46331;DHT22;32049;52.346;4.870;2022-09-29T06:11:04;8.30;99.90
46331;DHT22;32049;52.346;4.870;2022-09-29T06:13:53;8.30;99.90
46331;DHT22;32049;52.346;4.870;2022-09-29T06:16:40;8.30;99.90
46331;DHT22;32049;52.346;4.870;2022-09-29T06:22:43;8.60;99.90
46331;DHT22;32049;52.346;4.870;2022-09-29T06:25:31;8.60;99.90
46331;DHT22;32049;52.346;4.870;2022-09-29T06:28:18;8.60;99.90
46331;DHT22;32049;52.346;4.870;2022-09-29T06:31:27;8.80;99.90
46331;DHT22;32049;52.346;4.870;2022-09-29T06:34:15;9.00;99.90
46331;DHT22;32049;52.346;4.870;2022-09-29T06:37:02;9.10;99.90
46331;DHT22;32049;52.346;4.870;2022-09-29T06:40:09;9.20;99.90
46331;DHT22;32049;52.346;4.870;2022-09-29T06:42:57;9.00;99.90
46331;DHT22;32049;52.346;4.870;2022-09-29T06:45:44;9.10;99.90
46331;DHT22;32049;52.346;4.870;2022-09-29T06:48:31;9.30;99.90
46331;DHT22;32049;52.346;4.870;2022-09-29T06:51:20;9.50;99.90
46331;DHT22;32049;52.346;4.870;2022-09-29T06:54:20;9.40;99.90
46331;DHT22;32049;52.346;4.870;2022-09-29T06:57:08;9.50;99.90
46331;DHT22;32049;52.346;4.870;2022-09-29T06:59:56;9.60;99.90
46331;DHT22;32049;52.346;4.870;2022-09-29T07:02:46;9.80;99.90
46331;DHT22;32049;52.346;4.870;2022-09-29T07:05:34;9.90;99.90
46331;DHT22;32049;52.346;4.870;2022-09-29T07:08:22;9.90;99.90
46331;DHT22;32049;52.346;4.870;2022-09-29T07:11:10;10.10;99.90
46331;DHT22;32049;52.346;4.870;2022-09-29T07:16:39;10.20;99.90
46331;DHT22;32049;52.346;4.870;2022-09-29T07:19:34;10.30;99.90
46331;DHT22;32049;52.346;4.870;2022-09-29T07:22:30;10.40;99.90
46331;DHT22;32049;52.346;4.870;2022-09-29T07:25:44;10.50;99.90
46331;DHT22;32049;52.346;4.870;2022-09-29T07:29:16;10.60;99.90
46331;DHT22;32049;52.346;4.870;2022-09-29T07:32:18;10.90;99.90
46331;DHT22;32049;52.346;4.870;2022-09-29T07:35:17;11.00;99.90
46331;DHT22;32049;52.346;4.870;2022-09-29T07:43:20;11.10;99.90
46331;DHT22;32049;52.346;4.870;2022-09-29T07:46:43;11.50;99.90
46331;DHT22;32049;52.346;4.870;2022-09-29T07:49:42;11.70;99.90
46331;DHT22;32049;52.346;4.870;2022-09-29T07:52:32;11.70;99.90
46331;DHT22;32049;52.346;4.870;2022-09-29T07:55:23;11.90;99.90
46331;DHT22;32049;52.346;4.870;2022-09-29T07:58:29;11.80;99.90
46331;DHT22;32049;52.346;4.870;2022-09-29T08:01:20;12.20;99.90
46331;DHT22;32049;52.346;4.870;2022-09-29T08:04:11;12.30;99.90
46331;DHT22;32049;52.346;4.870;2022-09-29T08:07:00;12.40;99.90
46331;DHT22;32049;52.346;4.870;2022-09-29T08:09:51;12.50;99.90
46331;DHT22;32049;52.346;4.870;2022-09-29T08:12:44;12.80;99.90
46331;DHT22;32049;52.346;4.870;2022-09-29T08:15:34;12.90;99.90
46331;DHT22;32049;52.346;4.870;2022-09-29T08:18:37;12.80;99.90
46331;DHT22;32049;52.346;4.870;2022-09-29T08:21:31;13.20;99.90
46331;DHT22;32049;52.346;4.870;2022-09-29T08:24:33;13.30;99.90
46331;DHT22;32049;52.346;4.870;2022-09-29T08:27:54;13.40;99.90
46331;DHT22;32049;52.346;4.870;2022-09-29T08:30:51;13.80;99.90
46331;DHT22;32049;52.346;4.870;2022-09-29T08:33:39;13.70;99.90
46331;DHT22;32049;52.346;4.870;2022-09-29T08:36:27;13.50;99.90
46331;DHT22;32049;52.346;4.870;2022-09-29T08:39:21;13.90;99.90
46331;DHT22;32049;52.346;4.870;2022-09-29T08:45:12;14.10;99.90
46331;DHT22;32049;52.346;4.870;2022-09-29T08:48:24;14.10;99.90
46331;DHT22;32049;52.346;4.870;2022-09-29T08:51:45;14.10;99.90
46331;DHT22;32049;52.346;4.870;2022-09-29T08:54:40;14.50;99.90
46331;DHT22;32049;52.346;4.870;2022-09-29T08:57:35;14.30;99.90
46331;DHT22;32049;52.346;4.870;2022-09-29T09:00:32;14.40;99.90
46331;DHT22;32049;52.346;4.870;2022-09-29T09:03:41;14.60;99.90
46331;DHT22;32049;52.346;4.870;2022-09-29T09:12:54;15.30;99.90
46331;DHT22;32049;52.346;4.870;2022-09-29T09:32:11;16.20;99.90
46331;DHT22;32049;52.346;4.870;2022-09-29T09:35:39;15.90;99.90
46331;DHT22;32049;52.346;4.870;2022-09-29T09:38:49;15.80;99.90
46331;DHT22;32049;52.346;4.870;2022-09-29T09:41:43;16.00;99.90
46331;DHT22;32049;52.346;4.870;2022-09-29T09:44:33;16.10;99.90
46331;DHT22;32049;52.346;4.870;2022-09-29T09:47:28;16.40;99.90
46331;DHT22;32049;52.346;4.870;2022-09-29T09:50:18;16.30;99.90
46331;DHT22;32049;52.346;4.870;2022-09-29T09:53:19;16.40;99.90
46331;DHT22;32049;52.346;4.870;2022-09-29T09:56:15;16.40;99.90
46331;DHT22;32049;52.346;4.870;2022-09-29T10:05:14;16.30;99.90
46331;DHT22;32049;52.346;4.870;2022-09-29T10:08:03;16.20;99.90
46331;DHT22;32049;52.346;4.870;2022-09-29T10:10:52;16.30;99.90
46331;DHT22;32049;52.346;4.870;2022-09-29T10:13:46;16.20;99.90
46331;DHT22;32049;52.346;4.870;2022-09-29T10:16:44;16.50;99.90
46331;DHT22;32049;52.346;4.870;2022-09-29T10:22:38;16.50;99.90
46331;DHT22;32049;52.346;4.870;2022-09-29T10:25:26;16.70;99.90
46331;DHT22;32049;52.346;4.870;2022-09-29T10:28:14;16.60;99.90
46331;DHT22;32049;52.346;4.870;2022-09-29T10:31:01;16.80;99.90
46331;DHT22;32049;52.346;4.870;2022-09-29T10:33:59;16.80;99.90
46331;DHT22;32049;52.346;4.870;2022-09-29T10:36:53;17.40;99.90
46331;DHT22;32049;52.346;4.870;2022-09-29T10:39:44;17.40;99.90
46331;DHT22;32049;52.346;4.870;2022-09-29T10:42:38;17.30;99.90
46331;DHT22;32049;52.346;4.870;2022-09-29T10:45:28;17.40;99.90
46331;DHT22;32049;52.346;4.870;2022-09-29T10:57:28;17.10;99.90
46331;DHT22;32049;52.346;4.870;2022-09-29T11:00:43;17.70;99.90
46331;DHT22;32049;52.346;4.870;2022-09-29T11:03:32;18.20;99.90
46331;DHT22;32049;52.346;4.870;2022-09-29T11:06:27;18.00;99.90
46331;DHT22;32049;52.346;4.870;2022-09-29T11:12:02;18.10;99.90
46331;DHT22;32049;52.346;4.870;2022-09-29T11:14:55;17.90;99.90
46331;DHT22;32049;52.346;4.870;2022-09-29T11:17:48;18.00;99.90
46331;DHT22;32049;52.346;4.870;2022-09-29T11:20:36;17.50;99.90
46331;DHT22;32049;52.346;4.870;2022-09-29T11:23:43;17.90;99.90
46331;DHT22;32049;52.346;4.870;2022-09-29T11:32:22;17.30;99.90
46331;DHT22;32049;52.346;4.870;2022-09-29T11:35:22;16.90;99.90
46331;DHT22;32049;52.346;4.870;2022-09-29T11:45:07;16.70;99.90
46331;DHT22;32049;52.346;4.870;2022-09-29T11:54:30;17.30;99.90
46331;DHT22;32049;52.346;4.870;2022-09-29T12:00:50;17.80;99.90
46331;DHT22;32049;52.346;4.870;2022-09-29T12:15:50;17.70;99.90
46331;DHT22;32049;52.346;4.870;2022-09-29T12:18:48;17.90;99.90
46331;DHT22;32049;52.346;4.870;2022-09-29T12:21:43;18.20;99.90
46331;DHT22;32049;52.346;4.870;2022-09-29T12:24:54;17.70;99.90
46331;DHT22;32049;52.346;4.870;2022-09-29T12:27:44;17.60;99.90
46331;DHT22;32049;52.346;4.870;2022-09-29T12:30:45;18.30;99.90
46331;DHT22;32049;52.346;4.870;2022-09-29T12:33:49;18.70;99.90
46331;DHT22;32049;52.346;4.870;2022-09-29T12:37:19;18.90;99.90
46331;DHT22;32049;52.346;4.870;2022-09-29T12:40:27;18.60;99.90
46331;DHT22;32049;52.346;4.870;2022-09-29T12:43:30;18.90;99.90
46331;DHT22;32049;52.346;4.870;2022-09-29T12:49:59;18.90;99.90
46331;DHT22;32049;52.346;4.870;2022-09-29T12:56:06;18.40;99.90
46331;DHT22;32049;52.346;4.870;2022-09-29T12:59:06;17.60;99.90
46331;DHT22;32049;52.346;4.870;2022-09-29T13:01:57;17.50;99.90
46331;DHT22;32049;52.346;4.870;2022-09-29T13:27:09;16.50;99.90
46331;DHT22;32049;52.346;4.870;2022-09-29T13:30:25;16.30;99.90
46331;DHT22;32049;52.346;4.870;2022-09-29T13:36:05;15.80;99.90
46331;DHT22;32049;52.346;4.870;2022-09-29T13:38:57;16.00;99.90
46331;DHT22;32049;52.346;4.870;2022-09-29T13:41:46;15.70;99.90
46331;DHT22;32049;52.346;4.870;2022-09-29T13:44:38;15.80;99.90
46331;DHT22;32049;52.346;4.870;2022-09-29T14:13:45;15.70;99.90
46331;DHT22;32049;52.346;4.870;2022-09-29T14:16:49;15.50;99.90
46331;DHT22;32049;52.346;4.870;2022-09-29T14:25:47;15.50;99.90
46331;DHT22;32049;52.346;4.870;2022-09-29T14:28:38;15.50;99.90
46331;DHT22;32049;52.346;4.870;2022-09-29T14:31:29;15.60;99.90
46331;DHT22;32049;52.346;4.870;2022-09-29T14:34:18;16.60;99.90
46331;DHT22;32049;52.346;4.870;2022-09-29T14:37:15;17.50;99.90
46331;DHT22;32049;52.346;4.870;2022-09-29T14:40:07;17.80;99.90
46331;DHT22;32049;52.346;4.870;2022-09-29T14:43:15;18.30;99.90
46331;DHT22;32049;52.346;4.870;2022-09-29T14:49:24;18.10;99.90
46331;DHT22;32049;52.346;4.870;2022-09-29T15:02:56;16.60;99.90
46331;DHT22;32049;52.346;4.870;2022-09-29T15:06:12;16.70;99.90
46331;DHT22;32049;52.346;4.870;2022-09-29T15:11:51;16.40;99.90
46331;DHT22;32049;52.346;4.870;2022-09-29T15:14:39;16.10;99.90
46331;DHT22;32049;52.346;4.870;2022-09-29T15:17:51;15.90;99.90
46331;DHT22;32049;52.346;4.870;2022-09-29T15:27:12;15.70;99.90
46331;DHT22;32049;52.346;4.870;2022-09-29T15:32:53;15.90;99.90
46331;DHT22;32049;52.346;4.870;2022-09-29T15:36:04;15.90;99.90
46331;DHT22;32049;52.346;4.870;2022-09-29T15:42:19;15.70;99.90
46331;DHT22;32049;52.346;4.870;2022-09-29T15:45:26;15.50;99.90
46331;DHT22;32049;52.346;4.870;2022-09-29T15:48:42;15.20;99.90
46331;DHT22;32049;52.346;4.870;2022-09-29T15:52:25;15.10;99.90
46331;DHT22;32049;52.346;4.870;2022-09-29T15:55:10;15.00;99.90
46331;DHT22;32049;52.346;4.870;2022-09-29T15:58:43;15.00;99.90
46331;DHT22;32049;52.346;4.870;2022-09-29T16:02:14;15.00;99.90
46331;DHT22;32049;52.346;4.870;2022-09-29T16:05:24;15.00;99.90
46331;DHT22;32049;52.346;4.870;2022-09-29T16:08:24;14.90;99.90
46331;DHT22;32049;52.346;4.870;2022-09-29T16:11:35;14.80;99.90
46331;DHT22;32049;52.346;4.870;2022-09-29T16:14:53;14.80;99.90
46331;DHT22;32049;52.346;4.870;2022-09-29T16:18:42;14.70;99.90
46331;DHT22;32049;52.346;4.870;2022-09-29T16:21:56;14.70;99.90
46331;DHT22;32049;52.346;4.870;2022-09-29T16:25:43;14.70;99.90
46331;DHT22;32049;52.346;4.870;2022-09-29T16:29:24;14.90;99.90
46331;DHT22;32049;52.346;4.870;2022-09-29T16:32:38;14.80;99.90
46331;DHT22;32049;52.346;4.870;2022-09-29T16:38:47;15.10;99.90
46331;DHT22;32049;52.346;4.870;2022-09-29T16:41:38;14.90;99.90
46331;DHT22;32049;52.346;4.870;2022-09-29T16:44:50;14.90;99.90
46331;DHT22;32049;52.346;4.870;2022-09-29T16:47:55;15.00;99.90
46331;DHT22;32049;52.346;4.870;2022-09-29T16:51:00;14.90;99.90
46331;DHT22;32049;52.346;4.870;2022-09-29T16:54:31;14.90;99.90
46331;DHT22;32049;52.346;4.870;2022-09-29T16:58:08;14.80;99.90
46331;DHT22;32049;52.346;4.870;2022-09-29T17:01:12;14.80;99.90
46331;DHT22;32049;52.346;4.870;2022-09-29T17:04:11;14.80;99.90
46331;DHT22;32049;52.346;4.870;2022-09-29T17:07:11;14.80;99.90
46331;DHT22;32049;52.346;4.870;2022-09-29T17:10:15;14.80;99.90
46331;DHT22;32049;52.346;4.870;2022-09-29T17:13:20;14.60;99.90
46331;DHT22;32049;52.346;4.870;2022-09-29T17:16:15;14.60;99.90
46331;DHT22;32049;52.346;4.870;2022-09-29T17:19:23;14.40;99.90
46331;DHT22;32049;52.346;4.870;2022-09-29T17:22:32;14.50;99.90
46331;DHT22;32049;52.346;4.870;2022-09-29T17:25:32;14.50;99.90
46331;DHT22;32049;52.346;4.870;2022-09-29T17:28:24;14.50;99.90
46331;DHT22;32049;52.346;4.870;2022-09-29T19:06:31;12.80;99.90
46331;DHT22;32049;52.346;4.870;2022-09-29T19:09:25;12.70;99.90
46331;DHT22;32049;52.346;4.870;2022-09-29T19:12:41;12.70;99.90
46331;DHT22;32049;52.346;4.870;2022-09-29T19:15:38;12.60;99.90
46331;DHT22;32049;52.346;4.870;2022-09-29T19:18:38;12.70;99.90
46331;DHT22;32049;52.346;4.870;2022-09-29T19:21:32;12.60;99.90
46331;DHT22;32049;52.346;4.870;2022-09-29T19:24:28;12.60;99.90
46331;DHT22;32049;52.346;4.870;2022-09-29T19:27:29;12.60;99.90
46331;DHT22;32049;52.346;4.870;2022-09-29T19:30:20;12.60;99.90
46331;DHT22;32049;52.346;4.870;2022-09-29T19:33:12;12.50;99.90
46331;DHT22;32049;52.346;4.870;2022-09-29T19:36:03;12.50;99.90
46331;DHT22;32049;52.346;4.870;2022-09-29T19:39:01;12.50;99.90
46331;DHT22;32049;52.346;4.870;2022-09-29T19:42:04;12.50;99.90
46331;DHT22;32049;52.346;4.870;2022-09-29T19:45:24;12.50;99.90
46331;DHT22;32049;52.346;4.870;2022-09-29T19:51:42;12.40;99.90
46331;DHT22;32049;52.346;4.870;2022-09-29T19:55:22;12.20;99.90
46331;DHT22;32049;52.346;4.870;2022-09-29T19:58:37;12.20;99.90
46331;DHT22;32049;52.346;4.870;2022-09-29T20:05:35;12.20;99.90
46331;DHT22;32049;52.346;4.870;2022-09-29T20:09:06;12.20;99.90
46331;DHT22;32049;52.346;4.870;2022-09-29T20:12:17;12.20;99.90
46331;DHT22;32049;52.346;4.870;2022-09-29T20:15:10;12.20;99.90
46331;DHT22;32049;52.346;4.870;2022-09-29T20:18:32;12.00;99.90
46331;DHT22;32049;52.346;4.870;2022-09-29T20:21:32;12.00;99.90
46331;DHT22;32049;52.346;4.870;2022-09-29T20:24:40;12.00;99.90
